createdAt,value
2022-08-31T00:01:52.268Z,19.30
2022-08-31T00:04:19.619Z,19.20
2022-08-31T00:06:46.467Z,19.20
2022-08-31T00:09:20.623Z,19.20
2022-08-31T00:11:47.514Z,19.20
2022-08-31T00:14:14.537Z,19.10
2022-08-31T00:16:42.441Z,19.10
2022-08-31T00:19:09.450Z,19.10
2022-08-31T00:21:36.302Z,19.20
2022-08-31T00:24:03.423Z,19.10
2022-08-31T00:26:30.362Z,19.10
2022-08-31T00:28:57.188Z,19.10
2022-08-31T00:31:24.140Z,19.10
2022-08-31T00:33:52.706Z,19.10
2022-08-31T00:36:24.307Z,19.10
2022-08-31T00:38:51.990Z,19.00
2022-08-31T00:41:20.957Z,19.00
2022-08-31T00:43:50.206Z,19.00
2022-08-31T00:46:25.403Z,19.00
2022-08-31T00:49:27.260Z,18.90
2022-08-31T00:52:10.023Z,18.90
2022-08-31T00:54:48.386Z,18.90
2022-08-31T00:57:15.293Z,18.90
2022-08-31T00:59:43.045Z,18.90
2022-08-31T01:02:10.208Z,18.90
2022-08-31T01:04:37.131Z,18.90
2022-08-31T01:07:04.494Z,18.90
2022-08-31T01:09:33.235Z,18.90
2022-08-31T01:12:00.121Z,18.90
2022-08-31T01:14:26.957Z,18.90
2022-08-31T01:16:54.496Z,18.90
2022-08-31T01:20:00.222Z,18.90
2022-08-31T01:22:30.754Z,18.90
2022-08-31T01:24:58.631Z,18.90
2022-08-31T01:27:27.228Z,18.90
2022-08-31T01:29:54.154Z,18.90
2022-08-31T01:32:21.014Z,18.90
2022-08-31T01:34:47.809Z,18.80
2022-08-31T01:37:14.705Z,18.80
2022-08-31T01:39:43.460Z,18.80
2022-08-31T01:42:10.266Z,18.80
2022-08-31T01:44:37.150Z,18.80
2022-08-31T01:47:04.156Z,18.80
2022-08-31T01:49:31.131Z,18.80
2022-08-31T01:51:59.014Z,18.80
2022-08-31T01:54:27.770Z,18.70
2022-08-31T01:56:55.693Z,18.70
2022-08-31T01:59:22.729Z,18.70
2022-08-31T02:01:51.947Z,18.60
2022-08-31T02:04:22.858Z,18.60
2022-08-31T02:06:52.480Z,18.60
2022-08-31T02:09:19.879Z,18.60
2022-08-31T02:11:47.004Z,18.60
2022-08-31T02:14:13.961Z,18.60
2022-08-31T02:16:40.921Z,18.60
2022-08-31T02:19:07.994Z,18.50
2022-08-31T02:21:37.902Z,18.60
2022-08-31T02:24:05.055Z,18.60
2022-08-31T02:26:31.953Z,18.60
2022-08-31T02:28:58.927Z,18.50
2022-08-31T02:31:25.822Z,18.50
2022-08-31T02:33:52.674Z,18.50
2022-08-31T02:36:19.491Z,18.50
2022-08-31T02:38:46.735Z,18.50
2022-08-31T02:41:13.595Z,18.50
2022-08-31T02:43:40.442Z,18.50
2022-08-31T02:46:07.371Z,18.50
2022-08-31T02:48:35.086Z,18.40
2022-08-31T02:51:07.911Z,18.40
2022-08-31T02:53:35.006Z,18.50
2022-08-31T02:56:02.022Z,18.40
2022-08-31T02:58:29.058Z,18.50
2022-08-31T03:00:56.943Z,18.40
2022-08-31T03:03:23.903Z,18.50
2022-08-31T03:05:50.946Z,18.40
2022-08-31T03:08:18.326Z,18.50
2022-08-31T03:10:45.202Z,18.40
2022-08-31T03:13:12.066Z,18.40
2022-08-31T03:15:38.906Z,18.40
2022-08-31T03:18:07.168Z,18.30
2022-08-31T03:20:34.629Z,18.30
2022-08-31T03:23:01.734Z,18.30
2022-08-31T03:25:30.745Z,18.30
2022-08-31T03:27:57.634Z,18.30
2022-08-31T03:30:25.567Z,18.20
2022-08-31T03:32:55.095Z,18.20
2022-08-31T03:35:29.335Z,18.20
2022-08-31T03:37:56.470Z,18.20
2022-08-31T03:40:24.432Z,18.20
2022-08-31T03:42:51.346Z,18.20
2022-08-31T03:45:18.317Z,18.20
2022-08-31T03:47:45.735Z,18.10
2022-08-31T03:50:12.782Z,18.10
2022-08-31T03:52:39.762Z,18.10
2022-08-31T03:55:08.757Z,18.20
2022-08-31T03:57:35.627Z,18.20
2022-08-31T04:00:03.319Z,18.20
2022-08-31T04:02:34.120Z,18.20
2022-08-31T04:05:03.870Z,18.20
2022-08-31T04:07:30.665Z,18.20
2022-08-31T04:10:10.759Z,18.20
2022-08-31T04:12:37.605Z,18.20
2022-08-31T04:15:06.078Z,18.20
2022-08-31T04:17:34.995Z,18.20
2022-08-31T04:20:01.921Z,18.20
2022-08-31T04:22:28.783Z,18.20
2022-08-31T04:24:55.650Z,18.20
2022-08-31T04:27:22.525Z,18.20
2022-08-31T04:29:49.357Z,18.20
2022-08-31T04:32:16.179Z,18.10
2022-08-31T04:34:43.054Z,18.10
2022-08-31T04:37:10.376Z,18.10
2022-08-31T04:39:50.496Z,18.10
2022-08-31T04:42:19.097Z,18.00
2022-08-31T04:44:45.974Z,18.00
2022-08-31T04:47:12.789Z,18.00
2022-08-31T04:49:39.824Z,17.90
2022-08-31T04:52:06.836Z,17.90
2022-08-31T04:54:33.725Z,17.90
2022-08-31T04:57:00.614Z,17.90
2022-08-31T04:59:27.600Z,17.90
2022-08-31T05:01:55.827Z,17.80
2022-08-31T05:04:26.025Z,17.90
2022-08-31T05:06:52.899Z,17.90
2022-08-31T05:09:22.626Z,17.90
2022-08-31T05:11:51.032Z,17.80
2022-08-31T05:14:18.096Z,17.80
2022-08-31T05:16:45.561Z,17.70
2022-08-31T05:19:12.587Z,17.70
2022-08-31T05:21:40.557Z,17.70
2022-08-31T05:24:09.756Z,17.80
2022-08-31T05:26:42.142Z,17.70
2022-08-31T05:29:09.421Z,17.70
2022-08-31T05:31:37.431Z,17.70
2022-08-31T05:34:04.479Z,17.70
2022-08-31T05:36:31.498Z,17.70
2022-08-31T05:39:01.342Z,17.70
2022-08-31T05:41:28.975Z,17.70
2022-08-31T05:43:55.850Z,17.70
2022-08-31T05:46:22.786Z,17.70
2022-08-31T05:48:50.179Z,17.70
2022-08-31T05:51:17.649Z,17.70
2022-08-31T05:53:44.851Z,17.80
2022-08-31T05:56:15.918Z,17.80
2022-08-31T05:58:47.404Z,17.80
2022-08-31T06:01:15.180Z,17.80
2022-08-31T06:03:42.374Z,17.80
2022-08-31T06:06:09.871Z,17.80
2022-08-31T06:08:37.341Z,17.80
2022-08-31T06:11:04.382Z,17.90
2022-08-31T06:13:31.285Z,17.90
2022-08-31T06:15:59.453Z,17.90
2022-08-31T06:18:26.413Z,18.00
2022-08-31T06:21:09.760Z,18.00
2022-08-31T06:23:37.454Z,18.00
2022-08-31T06:26:06.294Z,18.00
2022-08-31T06:28:33.734Z,18.10
2022-08-31T06:31:01.600Z,18.20
2022-08-31T06:33:29.368Z,18.20
2022-08-31T06:35:56.630Z,18.30
2022-08-31T06:38:25.212Z,18.20
2022-08-31T06:40:52.095Z,18.30
2022-08-31T06:43:19.462Z,18.30
2022-08-31T06:45:46.475Z,18.30
2022-08-31T06:48:13.365Z,18.40
2022-08-31T06:50:41.512Z,18.60
2022-08-31T06:53:09.739Z,18.70
2022-08-31T06:55:36.767Z,18.70
2022-08-31T06:58:03.609Z,18.70
2022-08-31T07:00:33.784Z,18.60
2022-08-31T07:03:21.595Z,18.60
2022-08-31T07:05:48.790Z,18.70
2022-08-31T07:08:15.704Z,18.70
2022-08-31T07:10:42.634Z,18.70
2022-08-31T07:13:09.525Z,18.90
2022-08-31T07:15:36.582Z,18.90
2022-08-31T07:18:06.109Z,19.00
2022-08-31T07:20:36.654Z,19.10
2022-08-31T07:23:03.505Z,19.10
2022-08-31T07:25:30.483Z,19.10
2022-08-31T07:27:59.337Z,19.20
2022-08-31T07:30:28.978Z,19.20
2022-08-31T07:33:00.831Z,19.20
2022-08-31T07:35:30.026Z,19.30
2022-08-31T07:38:16.875Z,19.40
2022-08-31T07:41:22.035Z,19.40
2022-08-31T07:43:48.898Z,19.40
2022-08-31T07:46:16.511Z,19.50
2022-08-31T07:48:43.363Z,19.60
2022-08-31T07:51:14.590Z,19.60
2022-08-31T07:53:47.712Z,19.70
2022-08-31T07:56:16.575Z,19.70
2022-08-31T07:58:43.690Z,19.90
2022-08-31T08:01:10.554Z,19.90
2022-08-31T08:03:44.052Z,19.90
2022-08-31T08:06:17.986Z,20.00
2022-08-31T08:08:50.474Z,20.00
2022-08-31T08:11:28.585Z,20.10
2022-08-31T08:13:55.878Z,20.20
2022-08-31T08:16:23.462Z,20.10
2022-08-31T08:18:50.351Z,20.30
2022-08-31T08:21:17.214Z,20.30
2022-08-31T08:23:46.977Z,20.40
2022-08-31T08:26:21.161Z,20.40
2022-08-31T08:28:48.456Z,20.60
2022-08-31T08:31:18.587Z,20.60
2022-08-31T08:33:45.905Z,20.70
2022-08-31T08:36:13.005Z,20.70
2022-08-31T08:38:43.612Z,20.70
2022-08-31T08:41:19.325Z,20.80
2022-08-31T08:43:57.507Z,20.90
2022-08-31T08:46:52.397Z,21.00
2022-08-31T08:49:19.267Z,21.10
2022-08-31T08:51:47.723Z,21.00
2022-08-31T08:54:19.133Z,21.00
2022-08-31T08:56:49.356Z,21.00
2022-08-31T08:59:19.589Z,21.20
2022-08-31T09:01:48.018Z,21.30
2022-08-31T09:04:33.222Z,21.40
2022-08-31T09:07:23.111Z,21.40
2022-08-31T09:10:11.945Z,21.40
2022-08-31T09:12:43.066Z,21.50
2022-08-31T09:15:36.236Z,21.50
2022-08-31T09:18:32.999Z,21.60
2022-08-31T09:21:20.822Z,21.80
2022-08-31T09:24:08.912Z,21.90
2022-08-31T09:27:20.983Z,21.90
2022-08-31T09:29:55.777Z,22.00
2022-08-31T09:32:26.212Z,22.10
2022-08-31T09:35:00.355Z,22.10
2022-08-31T09:37:35.258Z,22.20
2022-08-31T09:40:24.356Z,22.20
2022-08-31T09:43:27.578Z,22.30
2022-08-31T09:46:04.083Z,22.30
2022-08-31T09:48:56.286Z,22.30
2022-08-31T09:51:28.358Z,22.40
2022-08-31T09:54:25.202Z,22.50
2022-08-31T09:56:58.678Z,22.60
2022-08-31T09:59:44.189Z,22.60
2022-08-31T10:02:26.629Z,22.60
2022-08-31T10:04:55.546Z,22.60
2022-08-31T10:07:58.436Z,22.60
2022-08-31T10:10:33.165Z,22.50
2022-08-31T10:13:07.183Z,22.60
2022-08-31T10:15:39.583Z,22.70
2022-08-31T10:18:14.575Z,22.60
2022-08-31T10:20:48.322Z,22.80
2022-08-31T10:23:29.242Z,22.90
2022-08-31T10:26:02.341Z,23.00
2022-08-31T10:28:52.412Z,23.00
2022-08-31T10:31:23.996Z,23.10
2022-08-31T10:34:37.266Z,23.00
2022-08-31T10:37:16.162Z,23.00
2022-08-31T10:39:58.271Z,23.10
2022-08-31T10:42:26.523Z,23.20
2022-08-31T10:44:59.319Z,23.30
2022-08-31T10:47:33.877Z,23.50
2022-08-31T10:50:03.234Z,23.50
2022-08-31T10:52:33.322Z,23.50
2022-08-31T10:55:07.554Z,23.50
2022-08-31T10:58:00.602Z,23.50
2022-08-31T11:00:48.984Z,23.70
2022-08-31T11:03:27.997Z,23.60
2022-08-31T11:06:18.253Z,23.70
2022-08-31T11:08:49.085Z,23.70
2022-08-31T11:11:26.783Z,23.90
2022-08-31T11:14:14.815Z,23.90
2022-08-31T11:16:52.202Z,23.90
2022-08-31T11:19:56.314Z,23.80
2022-08-31T11:23:06.268Z,23.80
2022-08-31T11:25:54.471Z,23.90
2022-08-31T11:29:00.288Z,24.20
2022-08-31T11:31:28.481Z,24.10
2022-08-31T11:34:16.075Z,24.10
2022-08-31T11:37:05.026Z,24.10
2022-08-31T11:39:35.980Z,24.10
2022-08-31T11:42:18.791Z,24.10
2022-08-31T11:44:54.214Z,24.30
2022-08-31T11:47:30.589Z,24.40
2022-08-31T11:50:20.873Z,24.50
2022-08-31T11:52:53.655Z,24.60
2022-08-31T11:55:25.731Z,24.70
2022-08-31T11:58:07.760Z,24.70
2022-08-31T12:00:56.016Z,24.80
2022-08-31T12:03:43.430Z,24.60
2022-08-31T12:06:28.277Z,24.60
2022-08-31T12:09:38.841Z,24.80
2022-08-31T12:12:27.925Z,24.90
2022-08-31T12:15:28.540Z,25.00
2022-08-31T12:18:10.833Z,24.90
2022-08-31T12:21:37.009Z,25.00
2022-08-31T12:24:19.147Z,25.10
2022-08-31T12:27:04.819Z,25.30
2022-08-31T12:29:33.323Z,25.20
2022-08-31T12:32:11.112Z,25.10
2022-08-31T12:34:59.503Z,25.30
2022-08-31T12:37:28.690Z,25.20
2022-08-31T12:40:11.680Z,25.30
2022-08-31T12:43:08.477Z,25.30
2022-08-31T12:46:01.852Z,25.10
2022-08-31T12:48:47.478Z,24.90
2022-08-31T12:51:32.795Z,25.10
2022-08-31T12:54:13.720Z,25.00
2022-08-31T12:56:58.638Z,24.90
2022-08-31T13:00:00.555Z,24.90
2022-08-31T13:02:29.248Z,24.80
2022-08-31T13:04:57.478Z,24.50
2022-08-31T13:07:32.683Z,24.60
2022-08-31T13:10:12.883Z,24.70
2022-08-31T13:12:39.775Z,24.70
2022-08-31T13:15:10.820Z,24.80
2022-08-31T13:17:41.285Z,24.80
2022-08-31T13:20:08.436Z,24.80
2022-08-31T13:22:41.344Z,24.70
2022-08-31T13:25:36.538Z,24.70
2022-08-31T13:28:15.072Z,24.90
2022-08-31T13:30:50.363Z,24.90
2022-08-31T13:33:31.847Z,25.00
2022-08-31T13:36:05.826Z,24.90
2022-08-31T13:38:44.936Z,24.90
2022-08-31T13:41:23.416Z,25.10
2022-08-31T13:43:58.672Z,25.00
2022-08-31T13:46:41.612Z,25.10
2022-08-31T13:49:20.787Z,25.20
2022-08-31T13:51:47.631Z,25.10
2022-08-31T13:54:24.958Z,25.10
2022-08-31T13:56:54.828Z,25.10
2022-08-31T13:59:24.624Z,25.10
2022-08-31T14:02:14.811Z,25.20
2022-08-31T14:04:46.467Z,25.10
2022-08-31T14:07:23.523Z,25.20
2022-08-31T14:09:57.741Z,25.20
2022-08-31T14:12:37.607Z,25.30
2022-08-31T14:15:11.098Z,25.30
2022-08-31T14:17:42.253Z,25.30
2022-08-31T14:20:33.734Z,25.50
2022-08-31T14:23:27.627Z,25.30
2022-08-31T14:25:59.814Z,25.30
2022-08-31T14:28:38.782Z,25.30
2022-08-31T14:31:12.478Z,25.40
2022-08-31T14:33:40.401Z,25.30
2022-08-31T14:36:14.569Z,25.40
2022-08-31T14:38:42.850Z,25.50
2022-08-31T14:41:15.825Z,25.60
2022-08-31T14:43:43.365Z,25.50
2022-08-31T14:46:10.570Z,25.50
2022-08-31T14:48:37.622Z,25.50
2022-08-31T14:51:06.599Z,25.30
2022-08-31T14:53:37.175Z,25.20
2022-08-31T14:56:06.554Z,25.10
2022-08-31T14:58:38.134Z,25.10
2022-08-31T15:01:06.264Z,25.00
2022-08-31T15:03:34.613Z,25.00
2022-08-31T15:06:03.826Z,25.10
2022-08-31T15:08:38.244Z,25.00
2022-08-31T15:11:06.255Z,25.10
2022-08-31T15:13:34.087Z,25.30
2022-08-31T15:16:04.105Z,25.10
2022-08-31T15:18:35.639Z,24.90
2022-08-31T15:21:04.323Z,24.90
2022-08-31T15:23:32.130Z,24.90
2022-08-31T15:26:06.660Z,25.00
2022-08-31T15:28:37.538Z,25.00
2022-08-31T15:31:11.444Z,25.10
2022-08-31T15:33:39.989Z,25.10
2022-08-31T15:36:09.209Z,25.00
2022-08-31T15:38:37.438Z,25.10
2022-08-31T15:41:04.964Z,25.20
2022-08-31T15:43:32.535Z,25.20
2022-08-31T15:45:59.595Z,25.30
2022-08-31T15:48:41.905Z,25.40
2022-08-31T15:51:27.992Z,25.40
2022-08-31T15:54:21.182Z,25.40
2022-08-31T15:56:49.207Z,25.40
2022-08-31T15:59:16.038Z,25.50
2022-08-31T16:01:42.917Z,25.60
2022-08-31T16:04:16.282Z,25.70
2022-08-31T16:06:43.303Z,25.80
2022-08-31T16:09:10.426Z,25.90
2022-08-31T16:11:40.368Z,26.00
2022-08-31T16:14:11.006Z,26.00
2022-08-31T16:16:40.265Z,26.00
2022-08-31T16:19:08.284Z,26.10
2022-08-31T16:21:37.766Z,26.10
2022-08-31T16:24:08.149Z,26.30
2022-08-31T16:26:37.183Z,26.30
2022-08-31T16:29:06.554Z,26.20
2022-08-31T16:31:33.615Z,26.30
2022-08-31T16:34:00.482Z,26.20
2022-08-31T16:36:28.167Z,26.00
2022-08-31T16:38:56.675Z,26.00
2022-08-31T16:41:26.326Z,26.00
2022-08-31T16:44:18.447Z,26.00
2022-08-31T16:46:45.242Z,25.90
2022-08-31T16:49:30.813Z,26.00
2022-08-31T16:51:58.327Z,25.90
2022-08-31T16:54:27.649Z,25.70
2022-08-31T16:56:57.722Z,25.90
2022-08-31T16:59:28.386Z,26.10
2022-08-31T17:01:55.430Z,25.70
2022-08-31T17:04:48.123Z,25.70
2022-08-31T17:07:11.993Z,25.70
2022-08-31T17:09:39.179Z,25.50
2022-08-31T17:12:08.223Z,25.70
2022-08-31T17:14:38.165Z,25.60
2022-08-31T17:17:08.079Z,25.40
2022-08-31T17:19:35.633Z,25.30
2022-08-31T17:22:04.983Z,25.00
2022-08-31T17:24:38.779Z,24.50
2022-08-31T17:27:09.477Z,23.90
2022-08-31T17:29:43.617Z,23.50
2022-08-31T17:32:11.726Z,23.30
2022-08-31T17:34:38.746Z,23.20
2022-08-31T17:37:08.301Z,23.00
2022-08-31T17:39:35.213Z,22.80
2022-08-31T17:42:02.137Z,22.80
2022-08-31T17:44:30.798Z,22.70
2022-08-31T17:46:59.041Z,22.60
2022-08-31T17:49:26.865Z,22.60
2022-08-31T17:51:55.191Z,22.50
2022-08-31T17:54:24.630Z,22.50
2022-08-31T17:56:53.834Z,22.50
2022-08-31T17:59:25.607Z,22.50
2022-08-31T18:01:54.737Z,22.50
2022-08-31T18:04:22.543Z,22.40
2022-08-31T18:06:51.732Z,22.40
2022-08-31T18:09:19.975Z,22.40
2022-08-31T18:11:47.836Z,22.30
2022-08-31T18:14:16.311Z,22.20
2022-08-31T18:16:44.007Z,22.20
2022-08-31T18:19:11.271Z,22.20
2022-08-31T18:21:38.411Z,22.20
2022-08-31T18:24:09.310Z,22.10
2022-08-31T18:26:43.240Z,22.10
2022-08-31T18:29:14.838Z,22.10
2022-08-31T18:31:46.758Z,22.00
2022-08-31T18:34:17.491Z,22.00
2022-08-31T18:36:45.565Z,22.00
2022-08-31T18:39:13.883Z,21.90
2022-08-31T18:41:59.454Z,21.80
2022-08-31T18:44:44.932Z,21.80
2022-08-31T18:47:12.206Z,21.80
2022-08-31T18:49:40.278Z,21.70
2022-08-31T18:52:19.562Z,21.80
2022-08-31T18:54:47.326Z,21.70
2022-08-31T18:57:14.136Z,21.60
2022-08-31T18:59:41.037Z,21.60
2022-08-31T19:02:08.129Z,21.60
2022-08-31T19:04:35.774Z,21.60
2022-08-31T19:07:03.462Z,21.60
2022-08-31T19:09:30.274Z,21.60
2022-08-31T19:12:02.318Z,21.60
2022-08-31T19:14:32.240Z,21.60
2022-08-31T19:17:03.935Z,21.60
2022-08-31T19:19:32.028Z,21.60
2022-08-31T19:21:58.903Z,21.60
2022-08-31T19:24:25.718Z,21.50
2022-08-31T19:26:56.838Z,21.50
2022-08-31T19:29:26.717Z,21.50
2022-08-31T19:31:54.798Z,21.50
2022-08-31T19:34:23.793Z,21.50
2022-08-31T19:36:54.530Z,21.50
2022-08-31T19:39:24.827Z,21.40
2022-08-31T19:41:59.167Z,21.40
2022-08-31T19:44:27.635Z,21.40
2022-08-31T19:46:55.297Z,21.40
2022-08-31T19:49:22.806Z,21.30
2022-08-31T19:51:58.238Z,21.30
2022-08-31T19:54:26.182Z,21.30
2022-08-31T19:56:53.660Z,21.30
2022-08-31T19:59:21.138Z,21.20
2022-08-31T20:01:52.269Z,21.20
2022-08-31T20:04:20.183Z,21.20
2022-08-31T20:06:52.343Z,21.20
2022-08-31T20:09:20.218Z,21.10
2022-08-31T20:11:50.141Z,21.10
2022-08-31T20:14:17.698Z,21.20
2022-08-31T20:16:45.151Z,21.20
2022-08-31T20:19:16.143Z,21.20
2022-08-31T20:21:44.599Z,21.20
2022-08-31T20:24:13.384Z,21.20
2022-08-31T20:26:44.783Z,21.20
2022-08-31T20:29:16.125Z,21.20
2022-08-31T20:31:45.084Z,21.20
2022-08-31T20:34:18.535Z,21.20
2022-08-31T20:36:47.800Z,21.20
2022-08-31T20:39:16.554Z,21.20
2022-08-31T20:41:46.293Z,21.20
2022-08-31T20:44:18.718Z,21.20
2022-08-31T20:47:05.098Z,21.20
2022-08-31T20:49:33.915Z,21.20
2022-08-31T20:52:01.963Z,21.20
2022-08-31T20:54:32.668Z,21.20
2022-08-31T20:57:00.890Z,21.20
2022-08-31T20:59:27.792Z,21.10
2022-08-31T21:01:58.658Z,21.10
2022-08-31T21:04:29.742Z,21.10
2022-08-31T21:06:58.965Z,21.10
2022-08-31T21:09:26.177Z,21.00
2022-08-31T21:11:55.393Z,21.00
2022-08-31T21:14:22.439Z,21.00
2022-08-31T21:16:50.318Z,21.00
2022-08-31T21:19:18.302Z,21.00
2022-08-31T21:21:46.033Z,20.90
2022-08-31T21:24:14.244Z,20.90
2022-08-31T21:26:41.330Z,20.90
2022-08-31T21:29:12.680Z,20.80
2022-08-31T21:31:52.055Z,20.80
2022-08-31T21:34:25.411Z,20.80
2022-08-31T21:36:52.313Z,20.70
2022-08-31T21:39:21.418Z,20.60
2022-08-31T21:41:50.475Z,20.60
2022-08-31T21:44:18.317Z,20.60
2022-08-31T21:46:50.296Z,20.50
2022-08-31T21:49:18.047Z,20.50
2022-08-31T21:51:48.703Z,20.50
2022-08-31T21:54:16.126Z,20.60
2022-08-31T21:56:47.937Z,20.60
2022-08-31T21:59:15.522Z,20.50
2022-08-31T22:01:42.710Z,20.60
2022-08-31T22:04:10.043Z,20.60
2022-08-31T22:06:37.119Z,20.60
2022-08-31T22:09:14.963Z,20.60
2022-08-31T22:11:45.652Z,20.60
2022-08-31T22:14:16.128Z,20.50
2022-08-31T22:16:46.501Z,20.40
2022-08-31T22:19:14.825Z,20.40
2022-08-31T22:21:44.222Z,20.40
2022-08-31T22:24:26.687Z,20.30
2022-08-31T22:26:55.290Z,20.30
2022-08-31T22:29:23.959Z,20.30
2022-08-31T22:31:56.369Z,20.30
2022-08-31T22:34:24.094Z,20.30
2022-08-31T22:36:52.153Z,20.40
2022-08-31T22:39:23.938Z,20.30
2022-08-31T22:41:51.868Z,20.30
2022-08-31T22:44:20.402Z,20.30
2022-08-31T22:46:47.586Z,20.30
2022-08-31T22:49:14.706Z,20.30
2022-08-31T22:51:42.123Z,20.30
2022-08-31T22:54:09.554Z,20.20
2022-08-31T22:56:37.725Z,20.20
2022-08-31T22:59:10.606Z,20.20
2022-08-31T23:01:42.795Z,20.20
2022-08-31T23:04:14.778Z,20.10
2022-08-31T23:06:41.630Z,20.10
2022-08-31T23:09:09.966Z,20.10
2022-08-31T23:11:37.511Z,20.10
2022-08-31T23:14:07.575Z,20.10
2022-08-31T23:16:45.590Z,20.10
2022-08-31T23:19:14.666Z,20.10
2022-08-31T23:21:47.711Z,20.10
2022-08-31T23:24:28.806Z,20.10
2022-08-31T23:27:03.044Z,20.10
2022-08-31T23:29:31.273Z,20.10
2022-08-31T23:31:59.556Z,20.00
2022-08-31T23:34:27.175Z,20.10
2022-08-31T23:36:55.595Z,20.10
2022-08-31T23:39:24.987Z,20.00
2022-08-31T23:41:53.274Z,20.10
2022-08-31T23:44:20.498Z,20.00
2022-08-31T23:46:47.709Z,20.10
2022-08-31T23:49:15.586Z,20.00
2022-08-31T23:51:42.644Z,19.90
2022-08-31T23:54:12.562Z,19.90
2022-08-31T23:56:40.871Z,19.90
2022-08-31T23:59:11.054Z,19.90
